Kezdőlap
METAR-TAF:

METAR-TAF

Repülőterek :

Tongatapu, Tonga

földrajzi szélesség: 21-14S, földrajzi hosszúság: 175-09W, magasság: 38 m

Jelenlegi meteorológiai megfigyelések

A jelentés 37 perccel ezelõtt készült, 04:00 UTC
Déli szél 12 kt
Hőmérséklet 26°C
Páratartalom 54%
Légköri nyomás 1006 hPa
Látótávolság 10 km, vagy több
Kevés felhő 1900 lábon

METAR: NFTF 100400Z 19012KT 9999 FEW019 26/16 Q1006 RMK DRY AIR 57%

Idő: 18:37 (04:37 UTC)

Előrejelzés

A jelentés 5 órával és 28 perccel ezelõtt készült, 23:09 UTC
Az előrejelzés 10-én 00 óra UTC és 10-én 24 óra UTC között érvényes
Déli szél 12 kt
Látótávolság 10 km, vagy több
Szórványos felhőzet 2000 lábon
Szórványos felhőzet 3500 lábon

TAF: NFTF 092309Z 1000/1024 19012KT 9999 SCT020 SCT035

Meteorológiai megfigyelések és előrejelzések több, mint 4000 repülőtéren (METAR és TAF jelentéseket).

A térképen piros és sárga pontok jelzik az elérhető meteorológiai állomásokat.

Mozgassa az egeret a pont fölött, hogy megjelenjen az állomás neve.

Azután kattintson az időjárási megfigyelések és előrejelzések megtekintéséhez.

A térkép megváltoztatása: kattintson a fekete keresztel jelölt zöld gombra ráközelítéshez, a vonallal jelölt zöld gombra távolításhoz, vagy a zöld nyilakra a szomszédos térképek eléréséhez.


METAR-TAF: